Bigfork, Minnesota
Current Conditions -  °F | °C
As of 5:13 PM on Wednesday 22 Oct 2014 (Local Time) from KFOZ Reporting Station
Clear Clear  
Wind Chill: 57°   Ceiling: Unl
Heat Index: 57°   Visibility: 10mi
Dew Point: 43°   Wind: 16mph
Humidity: 59%   Direction: 180°S
Pressure: 29.94"   Gusts: 26mph
Location:  47.74°N, 93.65°W
Report Text: KFOZ 222213Z AUTO 18014G23KT 10SM CLR 14/06 A2994 RMK AO2 LTG DSNT SE
Loading
Personal Weather Stations






























Interactive Weather Map New forecast layout! Learn more

10-Day Weather Forecast

Advertisements
Track Severe Weather on mobile